createdAt,value
2022-07-25T00:02:39.679Z,75.52
2022-07-25T00:04:42.766Z,74.13
2022-07-25T00:06:47.638Z,75.55
2022-07-25T00:08:50.407Z,75.26
2022-07-25T00:10:53.130Z,75.70
2022-07-25T00:12:55.825Z,75.53
2022-07-25T00:14:58.534Z,75.45
2022-07-25T00:17:02.181Z,76.13
2022-07-25T00:19:05.195Z,76.17
2022-07-25T00:21:07.990Z,76.43
2022-07-25T00:23:12.005Z,77.96
2022-07-25T00:25:14.938Z,78.30
2022-07-25T00:27:17.626Z,79.39
2022-07-25T00:29:20.307Z,80.20
2022-07-25T00:31:23.152Z,78.82
2022-07-25T00:33:25.948Z,78.41
2022-07-25T00:35:28.769Z,76.65
2022-07-25T00:37:31.430Z,76.76
2022-07-25T00:39:35.813Z,77.36
2022-07-25T00:41:39.305Z,77.01
2022-07-25T00:43:44.128Z,77.54
2022-07-25T00:45:46.858Z,78.18
2022-07-25T00:47:49.516Z,77.19
2022-07-25T00:49:52.227Z,76.86
2022-07-25T00:51:55.992Z,77.76
2022-07-25T00:53:58.917Z,78.54
2022-07-25T00:56:03.038Z,78.15
2022-07-25T00:58:05.746Z,77.73
2022-07-25T01:00:12.196Z,77.49
2022-07-25T01:02:15.061Z,78.55
2022-07-25T01:04:18.174Z,78.08
2022-07-25T01:06:22.618Z,78.65
2022-07-25T01:08:28.328Z,79.64
2022-07-25T01:10:31.904Z,80.25
2022-07-25T01:12:45.264Z,79.83
2022-07-25T01:14:48.028Z,79.51
2022-07-25T01:16:50.813Z,79.87
2022-07-25T01:18:53.630Z,80.46
2022-07-25T01:20:57.652Z,80.85
2022-07-25T01:23:01.151Z,80.20
2022-07-25T01:25:04.139Z,80.34
2022-07-25T01:27:06.852Z,79.62
2022-07-25T01:29:09.494Z,80.54
2022-07-25T01:31:12.452Z,80.71
2022-07-25T01:33:16.805Z,81.38
2022-07-25T01:35:19.669Z,80.58
2022-07-25T01:37:23.743Z,81.64
2022-07-25T01:39:26.398Z,80.67
2022-07-25T01:41:29.090Z,81.23
2022-07-25T01:43:31.885Z,81.21
2022-07-25T01:45:35.006Z,81.47
2022-07-25T01:47:37.806Z,81.59
2022-07-25T01:49:40.847Z,82.41
2022-07-25T01:51:43.514Z,82.51
2022-07-25T01:53:47.552Z,83.21
2022-07-25T01:55:51.038Z,82.91
2022-07-25T01:57:54.887Z,83.77
2022-07-25T01:59:57.635Z,83.88
2022-07-25T02:02:00.518Z,84.49
2022-07-25T02:04:03.552Z,85.32
2022-07-25T02:06:09.018Z,85.27
2022-07-25T02:08:11.682Z,85.26
2022-07-25T02:10:15.770Z,85.61
2022-07-25T02:12:18.607Z,85.75
2022-07-25T02:14:21.393Z,85.45
2022-07-25T02:16:28.890Z,85.96
2022-07-25T02:18:32.108Z,86.28
2022-07-25T02:20:34.877Z,86.46
2022-07-25T02:22:37.656Z,86.98
2022-07-25T02:24:40.379Z,87.79
2022-07-25T02:26:45.310Z,87.96
2022-07-25T02:28:48.035Z,87.86
2022-07-25T02:30:50.779Z,87.36
2022-07-25T02:32:53.531Z,88.28
2022-07-25T02:34:56.674Z,88.11
2022-07-25T02:36:59.470Z,87.92
2022-07-25T02:39:02.279Z,87.42
2022-07-25T02:41:05.876Z,87.72
2022-07-25T02:43:10.055Z,89.43
2022-07-25T02:45:13.894Z,89.16
2022-07-25T02:47:16.577Z,89.48
2022-07-25T02:49:19.344Z,89.95
2022-07-25T02:51:22.079Z,89.51
2022-07-25T02:53:47.119Z,90.18
2022-07-25T02:55:47.726Z,91.24
2022-07-25T02:57:50.463Z,90.28
2022-07-25T02:59:54.469Z,90.57
2022-07-25T03:01:57.151Z,90.43
2022-07-25T03:03:59.874Z,90.41
2022-07-25T03:06:02.624Z,90.96
2022-07-25T03:08:05.944Z,89.83
2022-07-25T03:10:11.345Z,89.40
2022-07-25T03:12:14.472Z,89.48
2022-07-25T03:14:17.266Z,88.20
2022-07-25T03:16:21.492Z,88.49
2022-07-25T03:18:24.207Z,89.86
2022-07-25T03:20:26.975Z,89.01
2022-07-25T03:22:29.954Z,88.68
2022-07-25T03:24:32.615Z,88.54
2022-07-25T03:26:35.360Z,88.75
2022-07-25T03:28:38.139Z,89.29
2022-07-25T03:30:40.781Z,89.19
2022-07-25T03:32:44.819Z,89.38
2022-07-25T03:34:47.510Z,89.91
2022-07-25T03:36:50.170Z,90.07
2022-07-25T03:38:52.958Z,90.50
2022-07-25T03:40:55.580Z,90.81
2022-07-25T03:42:58.672Z,90.74
2022-07-25T03:45:01.332Z,90.62
2022-07-25T03:47:04.004Z,89.98
2022-07-25T03:49:08.219Z,88.96
2022-07-25T03:51:10.931Z,89.22
2022-07-25T03:53:13.573Z,87.91
2022-07-25T03:55:16.299Z,88.24
2022-07-25T03:57:18.986Z,87.84
2022-07-25T03:59:22.571Z,87.68
2022-07-25T04:01:25.363Z,87.46
2022-07-25T04:03:29.833Z,87.97
2022-07-25T04:05:33.882Z,87.82
2022-07-25T04:07:36.575Z,84.65
2022-07-25T04:09:39.903Z,84.44
2022-07-25T04:11:43.236Z,84.50
2022-07-25T04:13:46.077Z,84.86
2022-07-25T04:15:48.693Z,85.53
2022-07-25T04:17:51.379Z,85.95
2022-07-25T04:19:54.749Z,85.23
2022-07-25T04:21:58.916Z,86.10
2022-07-25T04:24:01.572Z,86.91
2022-07-25T04:26:04.601Z,86.69
2022-07-25T04:28:07.346Z,86.98
2022-07-25T04:30:11.605Z,86.53
2022-07-25T04:32:14.727Z,85.93
2022-07-25T04:34:17.821Z,85.45
2022-07-25T04:36:20.518Z,85.03
2022-07-25T04:38:24.767Z,82.92
2022-07-25T04:40:27.507Z,79.41
2022-07-25T04:42:30.198Z,74.84
2022-07-25T04:44:32.830Z,72.41
2022-07-25T04:46:36.048Z,69.36
2022-07-25T04:48:38.929Z,67.46
2022-07-25T04:50:43.880Z,65.62
2022-07-25T04:52:46.645Z,64.45
2022-07-25T04:54:50.856Z,65.76
2022-07-25T04:56:53.487Z,69.70
2022-07-25T04:58:59.553Z,71.17
2022-07-25T05:01:04.724Z,69.20
2022-07-25T05:03:07.408Z,68.27
2022-07-25T05:05:21.559Z,68.51
2022-07-25T05:07:25.081Z,69.73
2022-07-25T05:09:29.618Z,68.94
2022-07-25T05:11:33.647Z,66.04
2022-07-25T05:13:36.335Z,66.46
2022-07-25T05:15:39.025Z,66.44
2022-07-25T05:17:41.724Z,64.74
2022-07-25T05:19:44.489Z,64.32
2022-07-25T05:21:47.150Z,65.73
2022-07-25T05:23:50.171Z,66.46
2022-07-25T05:25:52.798Z,68.10
2022-07-25T05:27:58.588Z,68.75
2022-07-25T05:30:01.262Z,68.24
2022-07-25T05:32:04.038Z,68.83
2022-07-25T05:34:07.287Z,70.73
2022-07-25T05:36:10.376Z,71.63
2022-07-25T05:38:13.019Z,72.42
2022-07-25T05:40:15.720Z,73.65
2022-07-25T05:42:18.405Z,74.12
2022-07-25T05:44:22.766Z,74.12
2022-07-25T05:46:25.776Z,74.48
2022-07-25T05:48:28.677Z,74.29
2022-07-25T05:50:31.567Z,74.30
2022-07-25T05:52:34.266Z,72.76
2022-07-25T05:54:37.393Z,72.66
2022-07-25T05:56:40.067Z,69.98
2022-07-25T05:58:43.328Z,69.76
2022-07-25T06:00:47.417Z,68.43
2022-07-25T06:02:50.311Z,67.54
2022-07-25T06:04:53.064Z,67.25
2022-07-25T06:06:55.761Z,67.35
2022-07-25T06:08:58.378Z,66.12
2022-07-25T06:11:03.879Z,67.12
2022-07-25T06:13:07.733Z,66.28
2022-07-25T06:15:17.663Z,65.81
2022-07-25T06:17:32.052Z,65.90
2022-07-25T06:19:35.179Z,65.30
2022-07-25T06:21:37.905Z,64.50
2022-07-25T06:23:40.655Z,63.15
2022-07-25T06:25:43.335Z,62.44
2022-07-25T06:27:53.117Z,60.90
2022-07-25T06:29:55.908Z,58.80
2022-07-25T06:31:58.611Z,60.00
2022-07-25T06:34:02.700Z,54.78
2022-07-25T06:36:06.412Z,54.89
2022-07-25T06:38:09.226Z,54.56
2022-07-25T06:40:12.477Z,56.41
2022-07-25T06:42:15.356Z,56.90
2022-07-25T06:44:19.154Z,56.64
2022-07-25T06:46:21.892Z,55.48
2022-07-25T06:48:25.181Z,56.83
2022-07-25T06:50:29.479Z,55.83
2022-07-25T06:52:32.356Z,57.38
2022-07-25T06:54:35.823Z,56.91
2022-07-25T06:56:38.511Z,54.52
2022-07-25T06:58:41.281Z,57.51
2022-07-25T07:00:44.123Z,56.65
2022-07-25T07:02:52.304Z,56.36
2022-07-25T07:04:55.029Z,56.13
2022-07-25T07:06:59.068Z,55.29
2022-07-25T07:09:01.921Z,55.27
2022-07-25T07:11:05.172Z,56.70
2022-07-25T07:13:09.661Z,54.96
2022-07-25T07:15:13.187Z,52.57
2022-07-25T07:17:15.947Z,52.60
2022-07-25T07:19:18.881Z,52.70
2022-07-25T07:21:21.830Z,51.86
2022-07-25T07:23:26.112Z,50.77
2022-07-25T07:25:31.928Z,48.24
2022-07-25T07:27:34.971Z,49.60
2022-07-25T07:29:37.774Z,48.90
2022-07-25T07:31:40.939Z,48.61
2022-07-25T07:33:43.634Z,44.72
2022-07-25T07:35:46.470Z,45.35
2022-07-25T07:37:49.246Z,49.30
2022-07-25T07:39:53.309Z,46.03
2022-07-25T07:41:56.486Z,46.26
2022-07-25T07:43:59.247Z,46.58
2022-07-25T07:46:02.108Z,46.81
2022-07-25T07:48:06.033Z,46.31
2022-07-25T07:50:10.565Z,46.03
2022-07-25T07:52:13.232Z,45.42
2022-07-25T07:54:33.816Z,45.26
2022-07-25T07:56:37.847Z,44.80
2022-07-25T07:58:40.645Z,43.65
2022-07-25T08:00:45.343Z,44.09
2022-07-25T08:02:50.282Z,43.77
2022-07-25T08:04:53.047Z,43.46
2022-07-25T08:06:55.787Z,42.41
2022-07-25T08:08:58.546Z,42.69
2022-07-25T08:11:01.235Z,43.86
2022-07-25T08:13:15.251Z,44.00
2022-07-25T08:15:18.756Z,42.49
2022-07-25T08:17:25.039Z,42.68
2022-07-25T08:19:31.127Z,41.26
2022-07-25T08:21:33.855Z,41.87
2022-07-25T08:23:38.980Z,41.68
2022-07-25T08:25:42.970Z,41.83
2022-07-25T08:27:45.992Z,41.40
2022-07-25T08:29:50.073Z,41.60
2022-07-25T08:31:52.816Z,43.19
2022-07-25T08:33:55.527Z,41.31
2022-07-25T08:35:59.174Z,39.69
2022-07-25T08:38:03.247Z,40.53
2022-07-25T08:40:07.186Z,38.93
2022-07-25T08:42:11.206Z,40.51
2022-07-25T08:44:15.339Z,41.13
2022-07-25T08:46:19.570Z,38.51
2022-07-25T08:48:23.725Z,37.78
2022-07-25T08:50:28.626Z,38.40
2022-07-25T08:52:35.189Z,41.00
2022-07-25T08:54:38.073Z,37.40
2022-07-25T08:56:40.761Z,37.87
2022-07-25T08:58:43.861Z,39.86
2022-07-25T09:00:47.361Z,38.34
2022-07-25T09:02:56.025Z,37.63
2022-07-25T09:04:59.617Z,38.26
2022-07-25T09:07:08.058Z,36.44
2022-07-25T09:09:11.078Z,38.01
2022-07-25T09:11:13.826Z,37.64
2022-07-25T09:13:17.788Z,36.23
2022-07-25T09:15:29.353Z,34.91
2022-07-25T09:17:32.310Z,34.16
2022-07-25T09:19:36.769Z,34.14
2022-07-25T09:21:40.839Z,33.57
2022-07-25T09:23:43.533Z,36.23
2022-07-25T09:25:46.267Z,33.74
2022-07-25T09:27:49.018Z,35.10
2022-07-25T09:29:51.751Z,34.88
2022-07-25T09:31:55.870Z,34.27
2022-07-25T09:34:00.304Z,32.45
2022-07-25T09:36:11.980Z,33.05
2022-07-25T09:38:16.604Z,32.39
2022-07-25T09:40:19.736Z,32.00
2022-07-25T09:42:24.317Z,33.90
2022-07-25T09:44:30.287Z,32.17
2022-07-25T09:46:34.017Z,31.75
2022-07-25T09:48:37.125Z,32.88
2022-07-25T09:50:40.129Z,34.75
2022-07-25T09:52:45.780Z,33.65
2022-07-25T09:54:48.560Z,32.43
2022-07-25T09:56:51.276Z,32.55
2022-07-25T09:58:53.975Z,32.84
2022-07-25T10:01:01.832Z,32.40
2022-07-25T10:03:19.520Z,31.23
2022-07-25T10:05:32.099Z,32.43
2022-07-25T10:07:38.317Z,32.85
2022-07-25T10:09:45.691Z,32.27
2022-07-25T10:12:05.319Z,32.70
2022-07-25T10:14:12.161Z,32.31
2022-07-25T10:16:20.495Z,32.39
2022-07-25T10:18:25.496Z,32.17
2022-07-25T10:20:29.915Z,32.93
2022-07-25T10:22:59.051Z,30.59
2022-07-25T10:25:11.429Z,30.45
2022-07-25T10:27:15.891Z,31.46
2022-07-25T10:29:23.074Z,32.48
2022-07-25T10:31:29.091Z,33.38
2022-07-25T10:33:42.265Z,33.47
2022-07-25T10:35:45.705Z,33.81
2022-07-25T10:37:52.014Z,33.24
2022-07-25T10:39:56.454Z,34.17
2022-07-25T10:42:02.743Z,34.64
2022-07-25T10:44:06.236Z,34.97
2022-07-25T10:46:14.549Z,34.25
2022-07-25T10:48:23.126Z,32.95
2022-07-25T10:50:53.283Z,33.65
2022-07-25T10:52:59.566Z,34.47
2022-07-25T10:55:02.734Z,35.94
2022-07-25T10:57:16.331Z,34.98
2022-07-25T10:59:30.930Z,34.83
2022-07-25T11:01:35.686Z,33.42
2022-07-25T11:03:38.517Z,34.58
2022-07-25T11:05:47.843Z,33.10
2022-07-25T11:08:18.863Z,33.80
2022-07-25T11:10:15.504Z,33.25
2022-07-25T11:12:19.624Z,33.14
2022-07-25T11:14:25.179Z,32.60
2022-07-25T11:16:28.313Z,33.01
2022-07-25T11:18:36.411Z,32.37
2022-07-25T11:20:39.154Z,31.80
2022-07-25T11:22:41.886Z,33.13
2022-07-25T11:24:46.458Z,35.10
2022-07-25T11:26:50.593Z,35.91
2022-07-25T11:28:54.686Z,35.01
2022-07-25T11:31:04.476Z,35.43
2022-07-25T11:33:07.398Z,35.51
2022-07-25T11:35:11.292Z,32.67
2022-07-25T11:37:14.589Z,34.72
2022-07-25T11:39:18.981Z,31.64
2022-07-25T11:41:29.955Z,33.32
2022-07-25T11:43:32.722Z,32.01
2022-07-25T11:45:39.303Z,30.54
2022-07-25T11:47:42.118Z,29.82
2022-07-25T11:49:46.232Z,29.38
2022-07-25T11:51:48.907Z,29.00
2022-07-25T11:53:52.786Z,30.30
2022-07-25T11:55:55.488Z,28.73
2022-07-25T11:58:01.128Z,28.90
2022-07-25T12:00:09.287Z,28.76
2022-07-25T12:02:22.616Z,30.31
2022-07-25T12:04:25.449Z,30.44
2022-07-25T12:06:30.651Z,29.66
2022-07-25T12:08:39.451Z,29.16
2022-07-25T12:10:43.704Z,28.91
2022-07-25T12:12:49.601Z,30.41
2022-07-25T12:14:52.590Z,30.35
2022-07-25T12:16:55.608Z,29.66
2022-07-25T12:18:59.721Z,29.37
2022-07-25T12:21:02.414Z,29.28
2022-07-25T12:23:06.908Z,30.69
2022-07-25T12:25:10.744Z,30.32
2022-07-25T12:27:13.446Z,30.35
2022-07-25T12:29:16.112Z,30.58
2022-07-25T12:31:19.163Z,31.59
2022-07-25T12:33:21.890Z,29.73
2022-07-25T12:35:26.950Z,30.50
2022-07-25T12:37:29.782Z,29.75
2022-07-25T12:39:33.550Z,29.54
2022-07-25T12:41:36.507Z,29.24
2022-07-25T12:43:39.246Z,28.84
2022-07-25T12:45:42.650Z,30.98
2022-07-25T12:47:46.455Z,31.83
2022-07-25T12:49:49.183Z,31.57
2022-07-25T12:51:57.909Z,32.69
2022-07-25T12:54:00.953Z,33.13
2022-07-25T12:56:03.721Z,33.27
2022-07-25T12:58:06.475Z,34.15
2022-07-25T13:00:12.870Z,34.39
2022-07-25T13:02:16.066Z,34.55
2022-07-25T13:04:18.801Z,35.43
2022-07-25T13:06:21.635Z,35.61
2022-07-25T13:08:25.934Z,35.50
2022-07-25T13:10:28.741Z,36.63
2022-07-25T13:12:32.085Z,36.54
2022-07-25T13:14:34.875Z,36.11
2022-07-25T13:16:38.366Z,36.51
2022-07-25T13:18:41.128Z,36.01
2022-07-25T13:20:43.842Z,34.85
2022-07-25T13:22:46.579Z,35.64
2022-07-25T13:24:50.851Z,34.67
2022-07-25T13:26:53.589Z,35.17
2022-07-25T13:28:59.807Z,34.58
2022-07-25T13:31:05.765Z,33.84
2022-07-25T13:33:09.959Z,34.69
2022-07-25T13:35:15.365Z,34.57
2022-07-25T13:37:20.608Z,33.74
2022-07-25T13:39:23.293Z,33.17
2022-07-25T13:41:27.768Z,32.11
2022-07-25T13:43:30.414Z,32.71
2022-07-25T13:45:33.241Z,32.76
2022-07-25T13:47:36.440Z,33.05
2022-07-25T13:49:39.170Z,32.85
2022-07-25T13:51:41.804Z,33.23
2022-07-25T13:53:45.761Z,32.76
2022-07-25T13:55:48.876Z,32.48
2022-07-25T13:57:52.878Z,32.60
2022-07-25T13:59:55.549Z,34.15
2022-07-25T14:01:58.313Z,34.43
2022-07-25T14:04:01.121Z,34.42
2022-07-25T14:06:04.095Z,34.24
2022-07-25T14:08:07.516Z,34.74
2022-07-25T14:10:11.137Z,34.51
2022-07-25T14:12:13.839Z,34.25
2022-07-25T14:14:18.191Z,35.15
2022-07-25T14:16:21.166Z,35.29
2022-07-25T14:18:23.818Z,35.31
2022-07-25T14:20:27.155Z,34.85
2022-07-25T14:22:29.989Z,35.55
2022-07-25T14:24:32.669Z,35.74
2022-07-25T14:26:35.885Z,36.07
2022-07-25T14:28:38.592Z,36.08
2022-07-25T14:30:42.693Z,36.10
2022-07-25T14:32:45.429Z,36.59
2022-07-25T14:34:48.062Z,37.20
2022-07-25T14:36:51.044Z,36.26
2022-07-25T14:38:53.731Z,36.26
2022-07-25T14:40:56.920Z,36.37
2022-07-25T14:42:59.619Z,36.12
2022-07-25T14:45:02.318Z,35.72
2022-07-25T14:47:10.446Z,36.89
2022-07-25T14:49:15.553Z,37.14
2022-07-25T14:51:19.848Z,36.29
2022-07-25T14:53:22.578Z,36.27
2022-07-25T14:55:25.746Z,36.14
2022-07-25T14:57:28.773Z,36.68
2022-07-25T14:59:31.473Z,36.39
2022-07-25T15:01:34.640Z,37.03
2022-07-25T15:03:39.730Z,36.58
2022-07-25T15:05:42.710Z,36.94
2022-07-25T15:07:45.959Z,37.24
2022-07-25T15:09:48.671Z,36.88
2022-07-25T15:11:51.530Z,38.09
2022-07-25T15:13:54.510Z,36.53
2022-07-25T15:15:58.344Z,36.81
2022-07-25T15:18:01.122Z,36.56
2022-07-25T15:20:06.094Z,37.29
2022-07-25T15:22:08.793Z,37.95
2022-07-25T15:24:11.808Z,37.81
2022-07-25T15:26:14.795Z,37.14
2022-07-25T15:28:17.579Z,38.22
2022-07-25T15:30:20.401Z,38.45
2022-07-25T15:32:23.108Z,38.69
2022-07-25T15:34:26.165Z,38.94
2022-07-25T15:36:30.428Z,39.13
2022-07-25T15:38:33.401Z,38.63
2022-07-25T15:40:36.138Z,39.12
2022-07-25T15:42:39.908Z,39.86
2022-07-25T15:44:42.807Z,40.54
2022-07-25T15:46:46.292Z,41.55
2022-07-25T15:48:50.109Z,42.15
2022-07-25T15:50:52.941Z,42.16
2022-07-25T15:52:57.068Z,43.17
2022-07-25T15:55:00.138Z,44.11
2022-07-25T15:57:02.963Z,44.60
2022-07-25T15:59:06.210Z,45.51
2022-07-25T16:01:09.281Z,44.88
2022-07-25T16:03:13.847Z,45.74
2022-07-25T16:05:16.958Z,45.80
2022-07-25T16:07:19.707Z,46.02
2022-07-25T16:09:25.386Z,46.25
2022-07-25T16:11:28.141Z,46.15
2022-07-25T16:13:30.930Z,46.62
2022-07-25T16:15:33.756Z,46.42
2022-07-25T16:17:38.068Z,46.81
2022-07-25T16:19:40.750Z,46.58
2022-07-25T16:21:43.517Z,47.09
2022-07-25T16:23:46.433Z,46.92
2022-07-25T16:25:50.521Z,46.92
2022-07-25T16:27:53.337Z,46.58
2022-07-25T16:29:56.603Z,46.50
2022-07-25T16:31:59.358Z,45.90
2022-07-25T16:34:02.073Z,45.89
2022-07-25T16:36:05.348Z,44.78
2022-07-25T16:38:08.135Z,45.68
2022-07-25T16:40:14.834Z,44.77
2022-07-25T16:42:18.901Z,44.41
2022-07-25T16:44:23.656Z,44.06
2022-07-25T16:46:28.574Z,43.78
2022-07-25T16:48:31.883Z,44.20
2022-07-25T16:50:34.621Z,43.82
2022-07-25T16:52:37.605Z,44.49
2022-07-25T16:54:40.292Z,43.99
2022-07-25T16:56:43.621Z,43.89
2022-07-25T16:58:47.986Z,43.82
2022-07-25T17:00:50.695Z,43.43
2022-07-25T17:02:55.008Z,43.85
2022-07-25T17:04:57.794Z,43.60
2022-07-25T17:07:00.619Z,43.48
2022-07-25T17:09:03.348Z,43.67
2022-07-25T17:11:06.856Z,43.38
2022-07-25T17:13:09.825Z,43.18
2022-07-25T17:15:14.114Z,43.19
2022-07-25T17:17:16.795Z,42.51
2022-07-25T17:19:19.487Z,42.40
2022-07-25T17:21:22.348Z,42.72
2022-07-25T17:23:25.444Z,43.30
2022-07-25T17:25:28.283Z,43.65
2022-07-25T17:27:31.135Z,43.82
2022-07-25T17:29:33.908Z,44.51
2022-07-25T17:31:38.002Z,44.57
2022-07-25T17:33:40.740Z,44.55
2022-07-25T17:35:43.384Z,44.84
2022-07-25T17:37:46.459Z,45.13
2022-07-25T17:39:49.207Z,44.80
2022-07-25T17:41:52.019Z,45.10
2022-07-25T17:43:54.676Z,45.26
2022-07-25T17:45:57.537Z,45.50
2022-07-25T17:48:01.819Z,45.54
2022-07-25T17:50:05.430Z,45.84
2022-07-25T17:52:08.094Z,45.96
2022-07-25T17:54:11.037Z,45.51
2022-07-25T17:56:13.964Z,45.58
2022-07-25T17:58:16.673Z,45.87
2022-07-25T18:00:21.170Z,46.31
2022-07-25T18:02:24.238Z,46.59
2022-07-25T18:04:29.734Z,46.24
2022-07-25T18:06:32.815Z,46.41
2022-07-25T18:08:36.014Z,46.64
2022-07-25T18:10:38.714Z,47.09
2022-07-25T18:12:41.382Z,47.45
2022-07-25T18:14:44.060Z,46.82
2022-07-25T18:16:46.901Z,46.86
2022-07-25T18:18:49.652Z,46.79
2022-07-25T18:20:53.681Z,47.29
2022-07-25T18:22:58.547Z,48.07
2022-07-25T18:25:01.225Z,48.38
2022-07-25T18:27:05.664Z,47.98
2022-07-25T18:29:09.545Z,48.47
2022-07-25T18:31:12.504Z,48.86
2022-07-25T18:33:16.556Z,49.01
2022-07-25T18:35:19.278Z,49.53
2022-07-25T18:37:23.386Z,49.62
2022-07-25T18:39:26.129Z,49.71
2022-07-25T18:41:30.144Z,50.19
2022-07-25T18:43:33.169Z,50.61
2022-07-25T18:45:37.328Z,50.14
2022-07-25T18:47:40.325Z,50.87
2022-07-25T18:49:43.038Z,51.12
2022-07-25T18:51:45.749Z,50.52
2022-07-25T18:53:49.827Z,50.67
2022-07-25T18:55:52.510Z,50.65
2022-07-25T18:57:55.213Z,50.31
2022-07-25T19:00:02.601Z,50.44
2022-07-25T19:02:06.350Z,50.07
2022-07-25T19:04:09.354Z,49.96
2022-07-25T19:06:12.845Z,50.26
2022-07-25T19:08:16.382Z,50.05
2022-07-25T19:10:20.666Z,50.26
2022-07-25T19:12:26.187Z,50.05
2022-07-25T19:14:30.490Z,50.13
2022-07-25T19:16:33.621Z,50.28
2022-07-25T19:18:36.432Z,50.36
2022-07-25T19:20:39.507Z,50.26
2022-07-25T19:22:42.276Z,49.54
2022-07-25T19:24:45.128Z,49.59
2022-07-25T19:26:49.777Z,48.98
2022-07-25T19:28:52.470Z,49.07
2022-07-25T19:30:55.212Z,48.90
2022-07-25T19:32:57.916Z,48.99
2022-07-25T19:35:00.693Z,49.20
2022-07-25T19:37:03.556Z,49.06
2022-07-25T19:39:07.052Z,49.16
2022-07-25T19:41:09.985Z,49.37
2022-07-25T19:43:14.047Z,49.56
2022-07-25T19:45:16.740Z,49.39
2022-07-25T19:47:19.647Z,49.43
2022-07-25T19:49:22.335Z,49.69
2022-07-25T19:51:25.044Z,49.81
2022-07-25T19:53:28.773Z,49.89
2022-07-25T19:55:31.847Z,50.53
2022-07-25T19:57:34.528Z,50.47
2022-07-25T19:59:38.596Z,50.41
2022-07-25T20:01:41.531Z,50.40
2022-07-25T20:03:44.296Z,50.92
2022-07-25T20:05:46.981Z,50.75
2022-07-25T20:07:49.655Z,51.26
2022-07-25T20:09:52.430Z,51.54
2022-07-25T20:11:56.133Z,51.40
2022-07-25T20:13:58.952Z,51.63
2022-07-25T20:16:03.828Z,51.49
2022-07-25T20:18:06.781Z,51.65
2022-07-25T20:20:10.488Z,51.96
2022-07-25T20:22:13.536Z,51.54
2022-07-25T20:24:21.153Z,51.90
2022-07-25T20:26:24.282Z,52.21
2022-07-25T20:28:27.023Z,52.38
2022-07-25T20:30:34.464Z,52.32
2022-07-25T20:32:39.065Z,51.81
2022-07-25T20:34:41.763Z,52.32
2022-07-25T20:36:44.432Z,52.40
2022-07-25T20:38:47.229Z,52.79
2022-07-25T20:40:51.159Z,52.94
2022-07-25T20:42:53.965Z,53.10
2022-07-25T20:44:57.364Z,53.29
2022-07-25T20:47:00.153Z,52.72
2022-07-25T20:49:04.482Z,53.25
2022-07-25T20:51:07.690Z,52.92
2022-07-25T20:53:10.931Z,53.19
2022-07-25T20:55:13.673Z,53.64
2022-07-25T20:57:16.388Z,53.66
2022-07-25T20:59:19.077Z,53.45
2022-07-25T21:01:22.017Z,54.02
2022-07-25T21:03:24.880Z,53.24
2022-07-25T21:05:29.227Z,53.78
2022-07-25T21:07:31.942Z,53.37
2022-07-25T21:09:34.637Z,53.31
2022-07-25T21:11:37.787Z,53.13
2022-07-25T21:13:40.592Z,53.01
2022-07-25T21:15:43.348Z,52.97
2022-07-25T21:17:46.042Z,52.63
2022-07-25T21:19:48.749Z,52.90
2022-07-25T21:21:53.196Z,52.70
2022-07-25T21:23:55.876Z,53.14
2022-07-25T21:25:58.610Z,52.73
2022-07-25T21:28:01.274Z,53.32
2022-07-25T21:30:05.467Z,53.13
2022-07-25T21:32:09.192Z,53.00
2022-07-25T21:34:11.918Z,52.67
2022-07-25T21:36:14.590Z,53.41
2022-07-25T21:38:27.291Z,53.48
2022-07-25T21:40:31.127Z,52.88
2022-07-25T21:42:33.903Z,53.19
2022-07-25T21:44:36.697Z,53.33
2022-07-25T21:46:39.352Z,53.58
2022-07-25T21:48:59.846Z,53.34
2022-07-25T21:51:02.612Z,54.20
2022-07-25T21:53:13.373Z,53.46
2022-07-25T21:55:17.583Z,53.60
2022-07-25T21:57:20.346Z,54.41
2022-07-25T21:59:22.999Z,54.50
2022-07-25T22:01:25.839Z,54.65
2022-07-25T22:03:28.600Z,54.44
2022-07-25T22:05:31.457Z,54.34
2022-07-25T22:07:34.171Z,54.15
2022-07-25T22:09:37.017Z,54.63
2022-07-25T22:11:46.006Z,54.41
2022-07-25T22:13:49.349Z,55.02
2022-07-25T22:15:52.079Z,54.45
2022-07-25T22:17:54.748Z,54.36
2022-07-25T22:19:57.415Z,54.65
2022-07-25T22:22:00.131Z,55.42
2022-07-25T22:24:02.816Z,55.06
2022-07-25T22:26:05.529Z,55.49
2022-07-25T22:28:09.599Z,55.95
2022-07-25T22:30:19.447Z,56.01
2022-07-25T22:32:22.389Z,56.31
2022-07-25T22:34:25.080Z,55.99
2022-07-25T22:36:27.764Z,56.67
2022-07-25T22:38:30.411Z,56.80
2022-07-25T22:40:33.113Z,56.72
2022-07-25T22:42:35.738Z,56.30
2022-07-25T22:44:39.765Z,56.53
2022-07-25T22:46:42.618Z,56.46
2022-07-25T22:48:45.347Z,57.17
2022-07-25T22:50:48.554Z,57.07
2022-07-25T22:52:51.455Z,57.71
2022-07-25T22:54:54.064Z,57.56
2022-07-25T22:56:56.908Z,58.27
2022-07-25T22:58:59.766Z,57.73
2022-07-25T23:01:03.843Z,57.65
2022-07-25T23:03:06.601Z,57.78
2022-07-25T23:05:10.257Z,58.26
2022-07-25T23:07:12.923Z,58.38
2022-07-25T23:09:15.708Z,58.54
2022-07-25T23:11:18.702Z,58.56
2022-07-25T23:13:21.394Z,59.25
2022-07-25T23:15:24.069Z,59.45
2022-07-25T23:17:32.273Z,59.53
2022-07-25T23:19:34.952Z,59.32
2022-07-25T23:21:37.629Z,59.42
2022-07-25T23:23:41.908Z,59.39
2022-07-25T23:25:44.696Z,58.97
2022-07-25T23:27:47.347Z,59.11
2022-07-25T23:29:50.052Z,59.13
2022-07-25T23:31:52.739Z,58.94
2022-07-25T23:33:56.785Z,59.66
2022-07-25T23:35:59.584Z,59.01
2022-07-25T23:38:02.341Z,59.66
2022-07-25T23:40:06.263Z,60.28
2022-07-25T23:42:09.079Z,60.97
2022-07-25T23:44:11.995Z,60.52
2022-07-25T23:46:14.811Z,61.11
2022-07-25T23:48:18.290Z,61.54
2022-07-25T23:50:22.500Z,61.97
2022-07-25T23:52:25.172Z,61.65
2022-07-25T23:54:27.896Z,62.13
2022-07-25T23:56:31.028Z,62.35
2022-07-25T23:58:33.691Z,62.07
